createdAt,value
2023-04-16T00:02:45.849Z,83.35
2023-04-16T00:07:47.106Z,83.49
2023-04-16T00:12:48.025Z,83.69
2023-04-16T00:17:49.089Z,83.47
2023-04-16T00:22:50.563Z,83.62
2023-04-16T00:27:51.576Z,83.53
2023-04-16T00:32:52.595Z,83.64
2023-04-16T00:37:53.843Z,83.79
2023-04-16T00:42:55.057Z,83.62
2023-04-16T00:47:59.293Z,83.50
2023-04-16T00:53:01.660Z,83.48
2023-04-16T00:58:03.024Z,83.40
2023-04-16T01:03:04.365Z,83.57
2023-04-16T01:08:05.513Z,84.04
2023-04-16T01:13:06.443Z,84.13
2023-04-16T01:18:21.582Z,84.12
2023-04-16T01:23:22.694Z,84.27
2023-04-16T01:28:23.792Z,84.65
2023-04-16T01:33:24.782Z,84.83
2023-04-16T01:38:26.432Z,84.73
2023-04-16T01:43:27.467Z,85.38
2023-04-16T01:48:28.583Z,85.57
2023-04-16T01:53:29.729Z,85.89
2023-04-16T01:58:32.215Z,85.77
2023-04-16T02:03:33.522Z,85.75
2023-04-16T02:08:34.887Z,85.98
2023-04-16T02:13:36.066Z,85.91
2023-04-16T02:18:37.099Z,85.45
2023-04-16T02:23:40.698Z,85.50
2023-04-16T02:28:41.797Z,85.72
2023-04-16T02:33:44.781Z,86.13
2023-04-16T02:38:46.352Z,86.02
2023-04-16T02:43:47.653Z,85.93
2023-04-16T02:48:48.830Z,85.81
2023-04-16T02:53:49.853Z,85.94
2023-04-16T02:58:51.750Z,86.06
2023-04-16T03:03:52.850Z,86.47
2023-04-16T03:08:54.272Z,86.69
2023-04-16T03:13:56.029Z,86.79
2023-04-16T03:18:56.984Z,86.52
2023-04-16T03:23:57.961Z,87.10
2023-04-16T03:28:58.905Z,86.86
2023-04-16T03:34:01.953Z,86.75
2023-04-16T03:39:05.381Z,86.29
2023-04-16T03:44:06.578Z,86.24
2023-04-16T03:49:08.085Z,86.38
2023-04-16T03:54:09.472Z,86.22
2023-04-16T03:59:12.291Z,85.92
2023-04-16T04:04:13.507Z,85.88
2023-04-16T04:09:15.777Z,85.90
2023-04-16T04:14:16.908Z,85.89
2023-04-16T04:19:17.927Z,85.69
2023-04-16T04:24:19.151Z,85.45
2023-04-16T04:29:20.489Z,85.16
2023-04-16T04:34:21.793Z,84.76
2023-04-16T04:39:22.913Z,84.65
2023-04-16T04:44:24.267Z,84.88
2023-04-16T04:49:25.716Z,84.89
2023-04-16T04:54:30.778Z,84.81
2023-04-16T04:59:31.885Z,84.89
2023-04-16T05:04:33.884Z,84.53
2023-04-16T05:09:35.182Z,84.75
2023-04-16T05:14:36.170Z,84.73
2023-04-16T05:19:37.185Z,84.48
2023-04-16T05:24:38.153Z,84.39
2023-04-16T05:29:39.218Z,84.67
2023-04-16T05:34:40.160Z,83.84
2023-04-16T05:39:41.283Z,84.39
2023-04-16T05:44:42.318Z,83.89
2023-04-16T05:49:43.428Z,82.55
2023-04-16T05:54:44.676Z,81.56
2023-04-16T05:59:45.597Z,81.80
2023-04-16T06:04:46.641Z,81.13
2023-04-16T06:09:47.618Z,80.83
2023-04-16T06:14:48.591Z,80.87
2023-04-16T06:19:49.566Z,80.11
2023-04-16T06:24:50.590Z,78.81
2023-04-16T06:29:52.193Z,77.86
2023-04-16T06:34:53.263Z,77.62
2023-04-16T06:39:54.234Z,77.61
2023-04-16T06:44:55.217Z,77.37
2023-04-16T06:49:56.219Z,77.17
2023-04-16T06:54:57.871Z,76.52
2023-04-16T06:59:58.812Z,76.50
2023-04-16T07:04:59.892Z,76.87
2023-04-16T07:10:00.895Z,76.62
2023-04-16T07:15:02.366Z,76.06
2023-04-16T07:20:03.722Z,75.37
2023-04-16T07:25:05.038Z,75.12
2023-04-16T07:30:07.361Z,74.69
2023-04-16T07:35:08.577Z,73.21
2023-04-16T07:40:10.254Z,72.46
2023-04-16T07:45:11.725Z,70.50
2023-04-16T07:50:12.829Z,71.37
2023-04-16T07:55:13.928Z,71.02
2023-04-16T08:00:15.004Z,69.32
2023-04-16T08:05:16.090Z,69.66
2023-04-16T08:10:17.124Z,68.37
2023-04-16T08:15:18.224Z,68.43
2023-04-16T08:20:19.657Z,67.23
2023-04-16T08:25:22.915Z,68.25
2023-04-16T08:30:24.193Z,67.22
2023-04-16T08:35:25.267Z,67.29
2023-04-16T08:40:28.197Z,65.06
2023-04-16T08:45:29.941Z,64.49
2023-04-16T08:50:32.760Z,64.58
2023-04-16T08:55:40.176Z,63.91
2023-04-16T09:00:42.585Z,61.86
2023-04-16T09:05:43.938Z,59.23
2023-04-16T09:10:45.448Z,59.53
2023-04-16T09:15:46.572Z,59.19
2023-04-16T09:20:51.371Z,57.07
2023-04-16T09:25:52.630Z,57.60
2023-04-16T09:31:07.608Z,57.74
2023-04-16T09:36:09.706Z,58.42
2023-04-16T09:41:10.897Z,56.35
2023-04-16T09:46:12.290Z,56.48
2023-04-16T09:51:13.321Z,57.24
2023-04-16T09:56:14.447Z,57.72
2023-04-16T10:01:17.694Z,59.47
2023-04-16T10:06:20.466Z,58.33
2023-04-16T10:11:21.721Z,59.59
2023-04-16T10:16:23.515Z,59.75
2023-04-16T10:21:32.885Z,57.19
2023-04-16T10:26:34.736Z,57.55
2023-04-16T10:31:38.040Z,56.32
2023-04-16T10:36:42.094Z,55.21
2023-04-16T10:41:43.048Z,54.68
2023-04-16T10:46:50.145Z,54.55
2023-04-16T10:51:57.988Z,53.98
2023-04-16T10:57:04.412Z,55.01
2023-04-16T11:02:09.007Z,55.45
2023-04-16T11:07:15.757Z,54.65
2023-04-16T11:12:22.531Z,54.79
2023-04-16T11:17:28.290Z,54.86
2023-04-16T11:22:29.686Z,54.14
2023-04-16T11:27:30.929Z,53.60
2023-04-16T11:32:36.666Z,54.64
2023-04-16T11:37:38.409Z,53.73
2023-04-16T11:42:41.321Z,52.61
2023-04-16T11:47:56.014Z,52.69
2023-04-16T11:53:03.939Z,51.18
2023-04-16T11:58:18.416Z,50.18
2023-04-16T12:03:37.669Z,51.46
2023-04-16T12:08:38.849Z,49.23
2023-04-16T12:13:40.307Z,48.25
2023-04-16T12:18:59.441Z,47.38
2023-04-16T12:24:00.427Z,47.19
2023-04-16T12:29:33.957Z,45.82
2023-04-16T12:34:50.420Z,45.12
2023-04-16T12:39:51.531Z,45.92
2023-04-16T12:44:52.514Z,47.63
2023-04-16T12:49:54.799Z,47.98
2023-04-16T12:54:55.918Z,47.53
2023-04-16T12:59:57.963Z,47.96
2023-04-16T13:04:59.265Z,48.12
2023-04-16T13:10:00.397Z,47.44
2023-04-16T13:15:01.446Z,45.44
2023-04-16T13:20:02.667Z,45.78
2023-04-16T13:25:04.821Z,44.81
2023-04-16T13:30:06.976Z,45.62
2023-04-16T13:35:09.998Z,46.51
2023-04-16T13:40:11.214Z,46.02
2023-04-16T13:45:12.399Z,45.44
2023-04-16T13:50:13.429Z,47.87
2023-04-16T13:55:17.317Z,46.78
2023-04-16T14:00:18.901Z,45.76
2023-04-16T14:05:19.956Z,44.90
2023-04-16T14:10:20.950Z,46.51
2023-04-16T14:15:21.895Z,47.30
2023-04-16T14:20:22.915Z,48.42
2023-04-16T14:25:24.191Z,48.97
2023-04-16T14:30:25.498Z,47.78
2023-04-16T14:35:26.561Z,47.54
2023-04-16T14:40:27.722Z,46.85
2023-04-16T14:45:30.222Z,47.13
2023-04-16T14:50:37.148Z,47.06
2023-04-16T14:55:38.467Z,48.36
2023-04-16T15:00:39.479Z,47.42
2023-04-16T15:05:40.802Z,47.18
2023-04-16T15:10:42.662Z,47.41
2023-04-16T15:15:43.734Z,47.58
2023-04-16T15:20:44.814Z,45.49
2023-04-16T15:25:45.752Z,46.50
2023-04-16T15:30:47.116Z,45.98
2023-04-16T15:35:50.662Z,45.85
2023-04-16T15:40:51.625Z,46.63
2023-04-16T15:45:52.656Z,47.12
2023-04-16T15:50:54.196Z,47.95
2023-04-16T15:55:55.209Z,49.50
2023-04-16T16:00:56.461Z,50.26
2023-04-16T16:05:59.353Z,50.49
2023-04-16T16:11:01.332Z,50.76
2023-04-16T16:16:03.174Z,50.92
2023-04-16T16:21:04.300Z,50.46
2023-04-16T16:26:05.666Z,50.59
2023-04-16T16:31:06.736Z,49.94
2023-04-16T16:36:11.129Z,50.16
2023-04-16T16:41:12.779Z,49.74
2023-04-16T16:46:13.760Z,49.50
2023-04-16T16:51:18.119Z,48.77
2023-04-16T16:56:19.083Z,49.19
2023-04-16T17:01:20.130Z,49.18
2023-04-16T17:06:22.421Z,48.90
2023-04-16T17:11:26.251Z,49.83
2023-04-16T17:16:27.368Z,51.40
2023-04-16T17:21:32.086Z,52.52
2023-04-16T17:26:33.068Z,53.28
2023-04-16T17:31:35.167Z,54.47
2023-04-16T17:36:36.655Z,55.57
2023-04-16T17:41:37.650Z,56.90
2023-04-16T17:46:38.690Z,58.32
2023-04-16T17:51:40.356Z,59.21
2023-04-16T17:56:41.436Z,60.38
2023-04-16T18:01:43.716Z,61.24
2023-04-16T18:06:44.901Z,62.00
2023-04-16T18:11:45.927Z,62.46
2023-04-16T18:16:48.229Z,62.89
2023-04-16T18:21:49.198Z,63.45
2023-04-16T18:26:50.249Z,63.65
2023-04-16T18:31:51.458Z,64.14
2023-04-16T18:36:52.477Z,64.82
2023-04-16T18:41:53.464Z,65.30
2023-04-16T18:46:54.664Z,65.86
2023-04-16T18:51:55.857Z,66.09
2023-04-16T18:56:59.067Z,66.10
2023-04-16T19:02:01.496Z,66.62
2023-04-16T19:07:02.924Z,67.12
2023-04-16T19:12:04.011Z,67.18
2023-04-16T19:17:05.063Z,66.87
2023-04-16T19:22:06.138Z,66.45
2023-04-16T19:27:07.126Z,66.34
2023-04-16T19:32:08.249Z,66.35
2023-04-16T19:37:09.310Z,66.29
2023-04-16T19:42:10.285Z,66.41
2023-04-16T19:47:11.266Z,66.42
2023-04-16T19:52:12.352Z,66.28
2023-04-16T19:57:13.470Z,66.21
2023-04-16T20:02:14.575Z,66.46
2023-04-16T20:07:15.612Z,66.53
2023-04-16T20:12:17.802Z,66.62
2023-04-16T20:17:19.126Z,66.75
2023-04-16T20:22:20.382Z,66.87
2023-04-16T20:27:21.401Z,66.75
2023-04-16T20:32:22.484Z,66.86
2023-04-16T20:37:23.587Z,67.09
2023-04-16T20:42:25.471Z,67.29
2023-04-16T20:47:26.591Z,67.29
2023-04-16T20:52:27.559Z,67.63
2023-04-16T20:57:29.102Z,67.66
2023-04-16T21:02:30.658Z,68.12
2023-04-16T21:07:32.416Z,68.18
2023-04-16T21:12:35.204Z,68.88
2023-04-16T21:17:39.382Z,69.39
2023-04-16T21:22:40.588Z,69.98
2023-04-16T21:27:41.553Z,70.38
2023-04-16T21:32:43.046Z,71.21
2023-04-16T21:37:44.019Z,71.49
2023-04-16T21:42:45.947Z,72.27
2023-04-16T21:47:47.767Z,73.10
2023-04-16T21:52:54.090Z,73.45
2023-04-16T21:57:55.085Z,73.59
2023-04-16T22:02:59.334Z,73.86
2023-04-16T22:08:02.609Z,73.65
2023-04-16T22:13:11.928Z,73.82
2023-04-16T22:18:13.423Z,74.20
2023-04-16T22:23:14.348Z,74.04
2023-04-16T22:28:15.492Z,73.95
2023-04-16T22:33:16.546Z,74.30
2023-04-16T22:38:17.549Z,74.33
2023-04-16T22:43:18.505Z,74.58
2023-04-16T22:48:19.607Z,74.38
2023-04-16T22:53:21.147Z,74.14
2023-04-16T22:58:22.293Z,74.25
2023-04-16T23:03:23.356Z,74.30
2023-04-16T23:08:24.621Z,74.91
2023-04-16T23:13:28.292Z,75.41
2023-04-16T23:18:29.300Z,75.98
2023-04-16T23:23:30.494Z,76.78
2023-04-16T23:28:31.571Z,76.77
2023-04-16T23:33:33.855Z,77.29
2023-04-16T23:38:34.826Z,77.31
2023-04-16T23:43:40.014Z,77.28
2023-04-16T23:48:43.192Z,77.44
2023-04-16T23:53:45.376Z,77.59
2023-04-16T23:58:46.379Z,77.74
